Time;durP1;ratioP1;P1;durP2;ratioP2;P2;SDS_P1;SDS_P2;PMS_P1;PMS_P2;Temp;Humidity;BMP_temperature;BMP_pressure;BME280_temperature;BME280_humidity;BME280_pressure;Samples;Min_cycle;Max_cycle;Signal;HPM_P1;HPM_P2
2022/02/16 00:01:35;;;;;;;6.22;1.95;;;;;;;13.24;76.39;98767.72;4954901;28;20027;-89
2022/02/16 00:04:00;;;;;;;6.03;1.85;;;;;;;13.18;77.52;98758.63;4953979;28;20134;-89
2022/02/16 00:06:25;;;;;;;7.90;2.58;;;;;;;13.13;78.41;98757.47;4953583;28;20027;-89
2022/02/16 00:08:51;;;;;;;4.90;1.30;;;;;;;13.07;79.88;98743.13;4953664;28;20110;-89
2022/02/16 00:11:16;;;;;;;4.95;1.50;;;;;;;13.13;80.07;98752.19;4952247;28;20079;-88
2022/02/16 00:13:42;;;;;;;5.35;1.42;;;;;;;13.43;78.44;98751.63;4953433;28;20493;-89
2022/02/16 00:16:08;;;;;;;5.90;1.20;;;;;;;13.44;78.43;98732.19;4953776;28;20106;-89
2022/02/16 00:18:38;;;;;;;3.63;1.10;;;;;;;13.43;78.61;98732.34;4959250;28;20027;-89
2022/02/16 00:21:04;;;;;;;7.95;1.60;;;;;;;13.61;78.09;98719.84;4974931;28;20034;-89
2022/02/16 00:23:30;;;;;;;2.90;0.95;;;;;;;13.71;77.66;98721.50;4976132;28;20035;-89
2022/02/16 00:25:55;;;;;;;4.88;1.25;;;;;;;13.54;78.54;98726.75;4976254;28;20031;-89
2022/02/16 00:28:24;;;;;;;2.33;0.95;;;;;;;13.51;79.35;98705.16;4976194;28;20485;-89
2022/02/16 00:30:49;;;;;;;2.97;0.90;;;;;;;13.70;78.42;98715.38;4976029;28;20551;-89
2022/02/16 00:33:14;;;;;;;2.92;0.88;;;;;;;13.65;79.02;98717.69;4971425;28;20117;-89
2022/02/16 00:35:40;;;;;;;1.98;0.95;;;;;;;13.62;79.14;98712.75;4956757;28;20023;-90
2022/02/16 00:38:05;;;;;;;3.97;0.77;;;;;;;13.95;77.79;98710.09;4956652;28;20026;-89
2022/02/16 00:40:31;;;;;;;2.95;0.80;;;;;;;13.87;78.52;98698.53;4956607;28;20162;-88
2022/02/16 00:42:56;;;;;;;3.20;0.70;;;;;;;13.86;78.36;98701.34;4955266;28;20400;-89
2022/02/16 00:45:22;;;;;;;3.00;0.60;;;;;;;13.77;79.59;98673.34;4956158;28;20034;-90
2022/02/16 00:47:52;;;;;;;3.97;0.68;;;;;;;13.79;79.61;98692.47;4894038;28;20432;-89
2022/02/16 00:50:19;;;;;;;;;;;;;;;14.03;78.62;98688.94;4949771;28;20042;-89
2022/02/16 00:52:44;;;;;;;3.95;0.80;;;;;;;13.98;78.93;98675.44;4956715;29;19915;-89
2022/02/16 00:55:09;;;;;;;2.67;0.55;;;;;;;14.00;78.76;98697.19;4956451;28;20048;-89
2022/02/16 00:57:35;;;;;;;1.88;0.50;;;;;;;14.05;79.15;98685.16;4956485;28;20106;-88
2022/02/16 01:00:01;;;;;;;2.13;0.60;;;;;;;14.14;78.31;98683.31;4956203;28;20478;-89
2022/02/16 01:02:27;;;;;;;5.82;0.82;;;;;;;14.06;79.43;98688.63;4958332;28;20038;-89
2022/02/16 01:04:52;;;;;;;4.75;0.70;;;;;;;14.24;78.04;98689.22;4975303;28;20022;-89
2022/02/16 01:07:18;;;;;;;2.40;0.40;;;;;;;14.33;77.84;98687.38;4975639;28;20547;-88
2022/02/16 01:09:43;;;;;;;0.88;0.55;;;;;;;14.14;79.21;98675.41;4975493;28;20026;-88
2022/02/16 01:12:09;;;;;;;1.63;0.30;;;;;;;14.42;77.33;98693.47;4975492;28;20102;-88
2022/02/16 01:14:34;;;;;;;0.70;0.30;;;;;;;14.41;77.33;98675.97;4975265;28;20109;-88
2022/02/16 01:17:00;;;;;;;0.40;0.32;;;;;;;14.51;77.06;98687.13;4974876;28;20031;-88
2022/02/16 01:19:26;;;;;;;0.60;0.30;;;;;;;14.46;77.45;98678.94;4975422;28;20030;-88
2022/02/16 01:21:52;;;;;;;0.90;0.28;;;;;;;14.56;77.46;98681.34;4982642;28;20027;-88
2022/02/16 01:24:18;;;;;;;0.90;0.30;;;;;;;14.48;77.59;98676.94;4991174;28;20066;-88
2022/02/16 01:26:44;;;;;;;0.43;0.22;;;;;;;14.49;77.79;98670.63;4989054;28;20155;-88
2022/02/16 01:29:09;;;;;;;0.60;0.20;;;;;;;14.44;78.08;98680.91;4985665;28;20026;-89
2022/02/16 01:31:34;;;;;;;0.30;0.10;;;;;;;14.33;79.43;98679.44;4989813;28;20041;-88
2022/02/16 01:34:00;;;;;;;0.57;0.10;;;;;;;14.47;79.23;98676.13;4967348;28;20038;-88
2022/02/16 01:36:25;;;;;;;0.03;0.03;;;;;;;14.40;79.23;98675.16;4967976;28;20028;-89
2022/02/16 01:38:51;;;;;;;0.10;0.03;;;;;;;14.41;80.48;98697.09;4965277;28;20027;-88
2022/02/16 01:41:17;;;;;;;0.90;0.10;;;;;;;14.25;81.83;98697.97;4957242;28;20031;-89
2022/02/16 01:43:50;;;;;;;0.30;0.00;;;;;;;14.50;80.66;98696.06;4957600;28;20042;-88
2022/02/16 01:46:16;;;;;;;0.00;0.00;;;;;;;14.31;82.43;98689.38;4956742;28;20118;-89
2022/02/16 01:48:42;;;;;;;0.00;0.00;;;;;;;14.51;81.28;98702.16;4973910;28;20054;-88
2022/02/16 01:51:08;;;;;;;1.85;0.30;;;;;;;14.52;81.08;98691.44;4975489;28;20497;-88
2022/02/16 01:53:34;;;;;;;1.55;0.20;;;;;;;14.38;81.89;98692.97;4975808;28;20054;-88
2022/02/16 01:55:59;;;;;;;1.20;0.52;;;;;;;14.52;81.24;98680.06;4975718;28;20019;-88
2022/02/16 01:58:25;;;;;;;1.70;0.30;;;;;;;14.72;79.64;98678.66;4975661;28;20381;-88
2022/02/16 02:00:51;;;;;;;7.25;0.52;;;;;;;14.63;80.98;98699.03;4975258;28;20031;-88
2022/02/16 02:03:16;;;;;;;4.55;0.45;;;;;;;14.60;81.42;98691.44;4974875;28;20023;-88
2022/02/16 02:05:42;;;;;;;3.20;0.60;;;;;;;14.65;81.72;98683.81;4968512;28;20078;-88
2022/02/16 02:08:10;;;;;;;8.95;1.00;;;;;;;14.76;81.34;98679.16;4955587;28;20033;-89
2022/02/16 02:10:35;;;;;;;6.93;1.08;;;;;;;14.53;83.86;98682.50;4955814;28;20079;-88
2022/02/16 02:13:01;;;;;;;5.80;0.50;;;;;;;14.58;83.07;98685.50;4955228;28;20115;-88
2022/02/16 02:15:26;;;;;;;6.60;0.95;;;;;;;14.71;82.08;98686.75;4955506;28;20442;-88
2022/02/16 02:17:52;;;;;;;3.13;0.60;;;;;;;14.86;82.01;98696.41;4955372;28;20028;-88
2022/02/16 02:20:19;;;;;;;3.83;0.55;;;;;;;14.78;82.44;98675.31;4956549;28;20095;-88
2022/02/16 02:22:45;;;;;;;5.10;1.10;;;;;;;14.62;84.36;98715.84;4969865;28;20058;-87
2022/02/16 02:25:10;;;;;;;5.75;0.95;;;;;;;14.83;82.09;98706.50;4974413;28;20029;-88
2022/02/16 02:27:36;;;;;;;9.57;2.08;;;;;;;14.62;84.40;98700.00;4975485;28;20027;-87
2022/02/16 02:30:01;;;;;;;3.45;0.60;;;;;;;14.77;82.37;98699.28;4988357;28;20046;-87
2022/02/16 02:32:26;;;;;;;16.88;2.95;;;;;;;14.84;83.19;98708.16;4989043;28;20034;-88
2022/02/16 02:34:53;;;;;;;7.07;1.00;;;;;;;14.79;82.97;98707.84;4987477;28;20393;-88
2022/02/16 02:37:19;;;;;;;7.43;0.98;;;;;;;14.82;83.16;98710.97;4970824;28;20023;-89
2022/02/16 02:39:44;;;;;;;8.55;0.95;;;;;;;14.95;82.16;98714.84;4986343;28;20033;-88
2022/02/16 02:42:09;;;;;;;5.60;0.80;;;;;;;15.07;81.43;98708.19;4988139;28;20053;-89
2022/02/16 02:44:35;;;;;;;6.68;0.75;;;;;;;15.14;80.38;98713.59;4979942;28;20034;-88
2022/02/16 02:47:01;;;;;;;10.23;1.63;;;;;;;14.88;82.78;98720.84;4985897;28;20031;-88
2022/02/16 02:49:27;;;;;;;11.30;1.40;;;;;;;14.56;85.06;98719.19;4982604;28;20037;-88
2022/02/16 02:51:52;;;;;;;7.25;1.00;;;;;;;14.57;85.80;98712.88;4979264;28;20026;-88
2022/02/16 02:54:18;;;;;;;9.18;2.00;;;;;;;14.76;84.35;98716.94;4983722;28;20027;-88
2022/02/16 02:56:43;;;;;;;9.63;1.60;;;;;;;14.94;83.12;98708.75;4984897;28;20019;-88
2022/02/16 02:59:08;;;;;;;7.90;1.23;;;;;;;14.98;82.22;98723.28;4980233;28;20481;-88
2022/02/16 03:01:34;;;;;;;5.63;1.25;;;;;;;14.93;83.40;98716.84;4979200;28;20532;-89
2022/02/16 03:03:59;;;;;;;7.65;1.92;;;;;;;14.60;86.32;98723.13;4985882;28;20039;-89
2022/02/16 03:06:24;;;;;;;7.68;1.90;;;;;;;14.63;86.07;98704.31;4979441;28;20130;-88
2022/02/16 03:08:50;;;;;;;9.45;2.08;;;;;;;14.82;84.09;98692.47;4979765;28;20027;-87
2022/02/16 03:11:19;;;;;;;11.85;2.60;;;;;;;14.66;85.93;98690.75;4984318;28;20033;-88
2022/02/16 03:13:46;;;;;;;12.88;2.38;;;;;;;14.91;83.87;98703.00;4976131;28;20029;-88
2022/02/16 03:16:11;;;;;;;12.35;2.50;;;;;;;14.83;83.98;98690.66;4975107;28;20023;-88
2022/02/16 03:18:36;;;;;;;13.57;2.35;;;;;;;14.92;83.45;98694.91;4974373;28;20547;-88
2022/02/16 03:21:02;;;;;;;17.48;2.85;;;;;;;14.88;83.58;98688.31;4968226;28;20027;-88
2022/02/16 03:23:27;;;;;;;13.52;2.85;;;;;;;14.87;84.03;98706.00;4954368;28;20028;-88
2022/02/16 03:25:53;;;;;;;21.70;3.22;;;;;;;14.60;85.43;98698.53;4954700;28;20027;-88
2022/02/16 03:28:18;;;;;;;19.60;3.15;;;;;;;14.98;83.56;98717.16;4954987;28;20537;-88
2022/02/16 03:30:43;;;;;;;15.93;3.30;;;;;;;14.88;83.46;98689.13;4955254;28;20035;-88
2022/02/16 03:33:09;;;;;;;20.42;2.97;;;;;;;14.78;85.37;98693.00;4955069;28;20082;-88
2022/02/16 03:35:34;;;;;;;20.35;3.30;;;;;;;14.89;83.52;98700.53;4960481;28;20477;-88
2022/02/16 03:38:00;;;;;;;18.73;2.88;;;;;;;14.73;85.38;98695.31;4973669;28;20381;-88
2022/02/16 03:40:26;;;;;;;13.50;3.22;;;;;;;14.98;82.87;98678.34;4973839;28;20096;-88
2022/02/16 03:42:51;;;;;;;22.15;3.50;;;;;;;15.24;80.81;98679.81;4973877;28;20477;-88
2022/02/16 03:45:17;;;;;;;21.38;3.50;;;;;;;14.87;83.34;98692.78;4974268;28;20473;-88
2022/02/16 03:47:44;;;;;;;18.75;3.03;;;;;;;14.95;82.61;98689.28;4974622;28;20038;-88
2022/02/16 03:50:10;;;;;;;26.23;3.75;;;;;;;15.03;81.32;98693.69;4973046;28;20031;-89
2022/02/16 03:52:35;;;;;;;26.30;3.63;;;;;;;14.66;84.28;98696.03;4973500;28;20027;-88
2022/02/16 03:55:01;;;;;;;24.38;4.43;;;;;;;15.05;82.11;98681.94;4974409;28;20030;-88
2022/02/16 03:57:27;;;;;;;23.40;3.65;;;;;;;15.11;81.78;98698.09;4977659;28;20026;-88
2022/02/16 03:59:52;;;;;;;16.30;3.17;;;;;;;15.20;81.10;98700.50;4977715;28;20026;-88
2022/02/16 04:02:18;;;;;;;19.13;3.85;;;;;;;14.96;82.54;98680.34;4978003;28;20475;-88
2022/02/16 04:04:43;;;;;;;16.65;3.25;;;;;;;14.98;82.49;98686.25;4977924;28;20023;-88
2022/02/16 04:07:09;;;;;;;18.17;3.35;;;;;;;14.84;84.21;98674.63;4975559;28;20031;-88
2022/02/16 04:09:34;;;;;;;15.93;2.67;;;;;;;15.18;81.15;98683.16;4975947;28;20541;-88
2022/02/16 04:11:59;;;;;;;14.18;2.33;;;;;;;15.24;80.48;98682.47;4977134;28;20022;-88
2022/02/16 04:14:25;;;;;;;14.35;2.88;;;;;;;14.71;84.84;98711.38;4976845;28;20441;-88
2022/02/16 04:16:50;;;;;;;19.75;3.67;;;;;;;14.92;84.04;98679.03;4976879;28;20023;-88
2022/02/16 04:19:15;;;;;;;24.40;4.32;;;;;;;15.06;81.84;98696.78;4977049;28;20034;-88
2022/02/16 04:21:41;;;;;;;23.17;4.78;;;;;;;14.82;84.38;98700.41;4960008;28;20442;-87
2022/02/16 04:24:07;;;;;;;33.20;5.15;;;;;;;14.58;85.26;98676.75;4956238;28;20058;-88
2022/02/16 04:26:32;;;;;;;24.52;3.33;;;;;;;14.80;83.85;98685.72;4957588;28;20023;-88
2022/02/16 04:28:57;;;;;;;26.42;4.75;;;;;;;14.84;83.77;98702.88;4957472;28;20023;-88
2022/02/16 04:31:23;;;;;;;34.78;5.88;;;;;;;14.74;84.58;98695.16;4957399;28;20082;-88
2022/02/16 04:33:48;;;;;;;37.00;5.60;;;;;;;14.72;84.54;98709.56;4957305;28;20031;-88
2022/02/16 04:36:25;;;;;;;45.45;6.53;;;;;;;14.87;83.11;98699.91;4971799;28;20026;-88
2022/02/16 04:38:54;;;;;;;45.63;7.38;;;;;;;14.88;83.86;98706.81;4977051;28;20019;-88
2022/02/16 04:41:20;;;;;;;44.15;6.80;;;;;;;14.78;83.38;98722.06;4976367;28;20481;-88
2022/02/16 04:43:45;;;;;;;43.35;7.70;;;;;;;15.22;80.45;98711.72;4976403;28;20038;-88
2022/02/16 04:46:10;;;;;;;43.90;7.30;;;;;;;15.16;80.84;98712.41;4976414;28;20050;-88
2022/02/16 04:48:38;;;;;;;56.97;8.60;;;;;;;14.86;83.05;98717.56;4975995;28;20027;-88
2022/02/16 04:51:04;;;;;;;59.15;7.65;;;;;;;14.79;82.48;98729.81;4960692;28;20066;-88
2022/02/16 04:53:32;;;;;;;45.97;8.05;;;;;;;14.58;83.89;98729.59;4956778;28;20055;-88
2022/02/16 04:56:02;;;;;;;43.95;8.48;;;;;;;14.74;83.34;98729.50;4956661;28;20106;-88
2022/02/16 04:58:27;;;;;;;63.30;8.77;;;;;;;14.99;81.77;98727.56;4956708;28;20036;-89
2022/02/16 05:00:53;;;;;;;59.00;9.48;;;;;;;15.22;79.89;98750.56;4956653;28;20019;-89
2022/02/16 05:03:18;;;;;;;54.13;8.80;;;;;;;14.84;81.77;98761.00;4957056;28;20031;-89
2022/02/16 05:05:43;;;;;;;62.72;9.15;;;;;;;14.58;83.74;98761.28;4971471;28;20063;-89
2022/02/16 05:08:09;;;;;;;51.22;9.05;;;;;;;14.74;82.56;98765.69;4974464;28;20023;-89
2022/02/16 05:10:34;;;;;;;54.75;10.80;;;;;;;14.67;82.48;98771.66;4975750;28;20031;-89
2022/02/16 05:13:00;;;;;;;54.53;8.90;;;;;;;14.75;81.95;98754.09;4975631;28;20393;-89
2022/02/16 05:15:25;;;;;;;68.47;11.73;;;;;;;14.74;81.00;98773.59;4975681;28;20034;-89
2022/02/16 05:17:51;;;;;;;61.97;10.60;;;;;;;14.83;80.81;98786.63;4975438;28;20063;-89
2022/02/16 05:20:16;;;;;;;67.25;11.82;;;;;;;15.14;78.90;98779.69;4973991;28;20381;-89
2022/02/16 05:22:42;;;;;;;67.03;11.77;;;;;;;14.81;80.36;98764.81;4975337;28;20078;-89
2022/02/16 05:25:07;;;;;;;65.13;10.98;;;;;;;14.94;79.72;98771.38;4975574;28;20042;-89
2022/02/16 05:27:34;;;;;;;67.78;11.32;;;;;;;14.89;79.80;98761.31;4975476;28;20026;-89
2022/02/16 05:29:59;;;;;;;80.55;12.23;;;;;;;14.79;79.95;98743.03;4994685;28;20031;-89
2022/02/16 05:32:24;;;;;;;70.30;13.38;;;;;;;14.86;79.68;98766.94;4997135;28;20065;-88
2022/02/16 05:34:50;;;;;;;78.25;12.68;;;;;;;15.02;78.55;98748.34;4989494;28;20007;-90
2022/02/16 05:37:15;;;;;;;71.88;11.95;;;;;;;15.02;78.74;98756.28;4977769;28;20046;-88
2022/02/16 05:39:41;;;;;;;65.97;11.68;;;;;;;14.90;79.20;98749.75;4977671;28;20024;-88
2022/02/16 05:42:07;;;;;;;74.60;11.25;;;;;;;15.10;78.11;98749.31;4968687;28;20309;-89
2022/02/16 05:44:32;;;;;;;77.22;13.40;;;;;;;15.04;77.98;98764.84;4976869;28;20027;-89
2022/02/16 05:46:57;;;;;;;90.13;13.15;;;;;;;14.97;78.31;98740.13;4962400;28;20032;-88
2022/02/16 05:49:23;;;;;;;78.68;13.65;;;;;;;14.59;80.53;98753.19;4959552;28;20379;-89
2022/02/16 05:51:48;;;;;;;68.18;13.35;;;;;;;14.82;79.89;98744.50;4958112;28;20034;-88
2022/02/16 05:54:14;;;;;;;79.25;11.93;;;;;;;14.81;79.87;98753.41;4957306;28;20055;-88
2022/02/16 05:56:39;;;;;;;87.75;12.65;;;;;;;14.79;78.92;98768.59;4956932;28;20034;-89
2022/02/16 05:59:05;;;;;;;64.30;10.85;;;;;;;15.02;78.30;98763.41;4956744;28;20038;-89
2022/02/16 06:01:30;;;;;;;76.53;13.35;;;;;;;15.09;77.31;98737.94;4955466;29;20028;-88
2022/02/16 06:03:55;;;;;;;73.75;11.80;;;;;;;15.02;77.36;98755.47;4956711;28;20086;-88
2022/02/16 06:06:21;;;;;;;72.68;11.65;;;;;;;14.81;78.91;98777.19;4957543;28;20078;-89
2022/02/16 06:08:47;;;;;;;74.68;11.00;;;;;;;14.98;78.38;98785.88;4956413;28;20217;-89
2022/02/16 06:11:12;;;;;;;77.78;10.68;;;;;;;15.02;77.71;98777.44;4956137;28;20442;-89
2022/02/16 06:13:38;;;;;;;73.05;11.75;;;;;;;14.89;78.17;98790.38;4955976;28;20062;-89
2022/02/16 06:16:05;;;;;;;63.50;10.45;;;;;;;14.97;78.00;98793.00;4955593;28;20474;-89
2022/02/16 06:18:30;;;;;;;62.67;11.00;;;;;;;14.93;77.47;98786.41;4954294;28;20054;-89
2022/02/16 06:20:56;;;;;;;76.28;12.45;;;;;;;14.86;77.80;98825.06;4956798;28;20039;-89
2022/02/16 06:23:22;;;;;;;71.05;11.50;;;;;;;15.06;76.85;98826.31;4955684;28;20101;-89
2022/02/16 06:25:47;;;;;;;66.85;11.82;;;;;;;15.14;76.08;98814.06;4955402;28;20031;-89
2022/02/16 06:28:13;;;;;;;71.78;12.15;;;;;;;14.87;77.24;98839.94;4955573;28;20035;-88
2022/02/16 06:30:38;;;;;;;60.20;10.90;;;;;;;14.74;78.14;98855.50;4955452;28;20023;-89
2022/02/16 06:33:04;;;;;;;79.10;14.07;;;;;;;15.16;75.85;98846.44;4955760;28;20429;-89
2022/02/16 06:35:30;;;;;;;71.65;10.32;;;;;;;15.06;76.09;98883.63;4971525;28;20027;-89
2022/02/16 06:37:55;;;;;;;66.70;12.30;;;;;;;15.23;75.43;98876.47;4974834;28;20034;-89
2022/02/16 06:40:20;;;;;;;53.90;9.60;;;;;;;15.47;74.78;98888.78;4975005;28;20023;-89
2022/02/16 06:42:46;;;;;;;69.88;12.00;;;;;;;14.95;76.36;98892.78;4974301;28;20031;-88
2022/02/16 06:45:12;;;;;;;63.92;10.52;;;;;;;15.08;76.20;98887.75;4973973;28;20027;-89
2022/02/16 06:47:38;;;;;;;57.90;11.07;;;;;;;15.22;75.11;98864.25;4971483;28;20048;-89
2022/02/16 06:50:04;;;;;;;73.22;10.43;;;;;;;14.86;76.74;98918.38;4970677;28;20042;-89
2022/02/16 06:52:30;;;;;;;66.80;11.65;;;;;;;14.75;77.24;98888.84;4973214;28;20031;-89
2022/02/16 06:54:56;;;;;;;62.67;10.75;;;;;;;15.10;75.35;98887.59;4973332;28;20042;-89
2022/02/16 06:57:21;;;;;;;61.80;10.13;;;;;;;15.04;75.41;98909.41;4972815;28;20033;-89
2022/02/16 06:59:46;;;;;;;71.13;12.05;;;;;;;14.98;75.60;98905.63;4973343;28;20469;-89
2022/02/16 07:02:12;;;;;;;58.33;10.73;;;;;;;15.00;75.49;98911.56;4973626;28;20030;-89
2022/02/16 07:04:38;;;;;;;65.07;12.27;;;;;;;14.74;76.08;98909.16;4972134;28;20532;-89
2022/02/16 07:07:04;;;;;;;60.67;9.95;;;;;;;15.08;74.77;98894.88;4972900;28;20031;-90
2022/02/16 07:09:29;;;;;;;56.67;10.00;;;;;;;15.23;74.25;98908.22;4974117;28;20062;-92
2022/02/16 07:11:55;;;;;;;57.50;10.45;;;;;;;14.76;75.86;98927.50;4971289;28;20058;-90
2022/02/16 07:14:22;;;;;;;55.60;10.77;;;;;;;14.94;75.32;98920.19;4979294;28;20046;-91
2022/02/16 07:16:47;;;;;;;61.65;10.13;;;;;;;15.04;74.86;98923.44;4974038;28;20034;-96
2022/02/16 07:19:13;;;;;;;65.63;10.40;;;;;;;14.58;76.84;98936.41;4972673;28;20034;-92
2022/02/16 07:21:38;;;;;;;58.58;10.57;;;;;;;14.58;76.08;98920.56;4970254;28;20018;-96
2022/02/16 07:24:04;;;;;;;61.13;10.50;;;;;;;14.67;76.73;98942.50;4974222;28;20030;-94
2022/02/16 07:26:30;;;;;;;69.38;12.85;;;;;;;14.74;76.37;98929.47;4958249;28;20476;-95
2022/02/16 07:28:55;;;;;;;62.28;11.90;;;;;;;14.58;76.36;98940.88;4967965;28;20030;-94
2022/02/16 07:31:21;;;;;;;65.15;11.35;;;;;;;14.80;76.21;98960.50;4982467;28;20401;-93
2022/02/16 07:33:47;;;;;;;69.43;10.98;;;;;;;14.50;77.72;98954.06;4979465;28;20210;-96
2022/02/16 07:36:13;;;;;;;65.38;10.45;;;;;;;14.85;76.17;98939.72;4977891;28;20035;-93
2022/02/16 07:38:38;;;;;;;63.90;11.23;;;;;;;14.47;76.31;98907.66;4979319;28;20046;-91
2022/02/16 07:41:04;;;;;;;68.35;12.88;;;;;;;14.68;76.43;98934.41;4979092;28;20042;-92
2022/02/16 07:43:29;;;;;;;59.95;10.07;;;;;;;14.84;75.89;98948.59;4979524;28;20027;-94
2022/02/16 07:45:55;;;;;;;59.55;10.90;;;;;;;15.05;75.06;98935.69;4979638;28;20030;-92
2022/02/16 07:48:21;;;;;;;56.17;10.40;;;;;;;15.08;74.38;98924.75;4979437;28;20355;-92
2022/02/16 07:50:49;;;;;;;61.58;11.30;;;;;;;15.06;74.56;98933.88;4982358;28;20377;-90
2022/02/16 07:53:16;;;;;;;79.95;12.63;;;;;;;14.64;76.09;98933.09;4978979;28;20121;-92
2022/02/16 07:55:42;;;;;;;75.07;11.70;;;;;;;14.43;76.59;98938.84;4978509;28;20026;-92
2022/02/16 07:58:08;;;;;;;66.07;12.00;;;;;;;14.86;75.58;98943.97;4979463;28;20031;-92
2022/02/16 08:00:37;;;;;;;56.83;11.20;;;;;;;14.88;75.30;98934.06;4980037;28;20099;-91
2022/02/16 08:03:04;;;;;;;85.70;15.02;;;;;;;14.88;75.40;98937.53;4979853;28;20429;-91
2022/02/16 08:05:29;;;;;;;59.33;10.07;;;;;;;14.93;75.26;98941.47;4978111;28;20149;-91
2022/02/16 08:07:55;;;;;;;70.88;11.48;;;;;;;15.02;75.04;98933.38;4964479;28;20031;-92
2022/02/16 08:10:21;;;;;;;57.38;10.65;;;;;;;15.04;74.54;98923.44;4963736;28;20106;-90
2022/02/16 08:12:56;;;;;;;64.38;10.77;;;;;;;15.21;73.97;98928.72;4978712;28;20034;-91
2022/02/16 08:15:23;;;;;;;76.85;12.32;;;;;;;15.09;74.75;98930.91;4978996;28;20027;-88
2022/02/16 08:17:48;;;;;;;70.32;11.52;;;;;;;15.10;74.86;98918.50;4977789;28;20401;-91
2022/02/16 08:20:14;;;;;;;62.25;11.35;;;;;;;14.94;74.89;98906.16;4974805;28;20029;-91
2022/02/16 08:22:40;;;;;;;71.63;12.23;;;;;;;15.02;74.90;98922.78;4977430;28;20035;-89
2022/02/16 08:25:06;;;;;;;66.15;12.63;;;;;;;15.11;75.02;98936.84;4976920;28;20523;-90
2022/02/16 08:27:32;;;;;;;66.35;10.52;;;;;;;15.05;74.54;98927.75;4975804;28;20022;-90
2022/02/16 08:29:58;;;;;;;63.65;12.02;;;;;;;15.06;74.68;98929.38;4975943;28;20491;-90
2022/02/16 08:32:23;;;;;;;64.90;12.10;;;;;;;15.06;74.52;98918.81;4978945;28;20085;-91
2022/02/16 08:34:49;;;;;;;69.10;10.50;;;;;;;15.22;73.81;98925.06;4979008;28;20069;-90
2022/02/16 08:37:14;;;;;;;56.95;9.55;;;;;;;15.39;73.13;98954.94;4979105;28;20035;-90
2022/02/16 08:39:40;;;;;;;58.78;11.38;;;;;;;15.09;73.95;98981.13;4979178;28;20106;-90
2022/02/16 08:42:06;;;;;;;51.17;10.25;;;;;;;15.12;73.77;98986.06;4977401;28;20077;-90
2022/02/16 08:44:31;;;;;;;63.13;10.32;;;;;;;15.30;73.14;98999.06;4963579;28;20031;-90
2022/02/16 08:46:57;;;;;;;67.53;10.35;;;;;;;15.55;72.27;99012.25;4956889;28;20520;-90
2022/02/16 08:49:23;;;;;;;59.08;11.05;;;;;;;15.62;72.23;99007.91;4956787;28;20032;-91
2022/02/16 08:51:49;;;;;;;54.60;9.98;;;;;;;15.32;73.07;99005.00;4956775;28;20031;-90
2022/02/16 08:54:14;;;;;;;50.40;9.75;;;;;;;15.44;72.09;99008.97;4957605;28;20034;-90
2022/02/16 08:56:40;;;;;;;66.68;11.63;;;;;;;15.25;72.46;98994.28;4956627;28;20054;-90
2022/02/16 08:59:06;;;;;;;51.15;9.65;;;;;;;15.41;72.06;99004.00;4956630;28;20035;-90
2022/02/16 09:01:32;;;;;;;74.30;12.48;;;;;;;15.38;72.05;98993.78;4956769;28;20031;-90
2022/02/16 09:04:05;;;;;;;63.95;12.18;;;;;;;15.43;71.77;99002.00;4975747;28;20050;-90
2022/02/16 09:06:31;;;;;;;64.55;10.88;;;;;;;15.41;71.71;98977.56;4975632;28;20041;-90
2022/02/16 09:08:56;;;;;;;66.22;10.25;;;;;;;15.43;72.10;98961.53;4975869;28;20031;-90
2022/02/16 09:11:23;;;;;;;63.67;12.38;;;;;;;15.49;71.42;98966.13;4975508;28;20465;-90
2022/02/16 09:13:48;;;;;;;68.88;12.85;;;;;;;15.28;72.12;98937.59;4974373;28;20117;-91
2022/02/16 09:16:14;;;;;;;63.15;11.35;;;;;;;15.62;71.44;98949.69;4974769;28;20433;-91
2022/02/16 09:18:39;;;;;;;63.35;10.98;;;;;;;15.65;71.47;98933.47;4974352;28;20026;-91
2022/02/16 09:21:06;;;;;;;61.10;11.23;;;;;;;15.83;70.94;98920.84;4975007;28;20051;-91
2022/02/16 09:23:36;;;;;;;51.08;9.85;;;;;;;15.75;70.74;98928.81;4975264;28;20078;-91
2022/02/16 09:26:03;;;;;;;53.95;10.50;;;;;;;15.81;70.96;98946.66;4974316;28;20035;-90
2022/02/16 09:28:29;;;;;;;60.00;11.05;;;;;;;15.57;71.65;98936.16;4973915;28;20481;-93
2022/02/16 09:30:59;;;;;;;62.13;10.35;;;;;;;15.78;71.30;98917.91;4973739;28;20077;-94
2022/02/16 09:33:26;;;;;;;71.22;11.25;;;;;;;15.58;72.07;98906.06;4966121;28;20058;-91
2022/02/16 09:35:53;;;;;;;55.22;10.82;;;;;;;15.60;71.08;98910.19;4978309;28;20015;-90
2022/02/16 09:38:18;;;;;;;66.88;10.93;;;;;;;15.52;71.66;98899.66;4994154;28;20087;-90
2022/02/16 09:40:46;;;;;;;54.35;10.27;;;;;;;15.63;72.22;98914.31;4992563;28;20473;-90
2022/02/16 09:43:17;;;;;;;57.20;10.18;;;;;;;15.61;72.45;98903.91;4990410;28;20031;-91
2022/02/16 09:45:43;;;;;;;59.50;10.70;;;;;;;15.54;72.97;98902.13;4987837;28;20397;-90
2022/02/16 09:48:09;;;;;;;49.42;8.55;;;;;;;15.73;72.63;98896.44;4991691;28;20041;-91
2022/02/16 09:50:34;;;;;;;54.08;8.50;;;;;;;15.52;74.22;98904.09;4989136;28;20505;-90
2022/02/16 09:53:00;;;;;;;46.45;8.70;;;;;;;15.45;74.61;98891.56;4990650;28;20041;-91
2022/02/16 09:55:25;;;;;;;47.58;7.18;;;;;;;15.56;74.35;98884.25;4974004;28;20030;-91
2022/02/16 09:57:51;;;;;;;36.65;6.88;;;;;;;15.55;74.82;98886.06;4975392;28;20027;-93
2022/02/16 10:00:16;;;;;;;29.73;5.03;;;;;;;15.34;76.48;98878.72;4974409;28;20033;-91
2022/02/16 10:02:43;;;;;;;29.15;5.85;;;;;;;15.58;75.64;98864.56;4973702;28;20105;-92
2022/02/16 10:05:10;;;;;;;29.13;5.43;;;;;;;15.71;75.98;98868.47;4974433;28;20029;-91
2022/02/16 10:07:40;;;;;;;30.40;4.97;;;;;;;15.67;76.61;98845.00;4963733;28;20388;-90
2022/02/16 10:10:32;;;;;;;23.67;3.97;;;;;;;15.93;75.10;98848.34;4974135;28;20038;-94
2022/02/16 10:13:02;;;;;;;23.40;5.10;;;;;;;15.69;76.04;98855.41;4977658;28;20109;-96
2022/02/16 10:15:38;;;;;;;20.70;3.50;;;;;;;15.89;75.30;98863.75;4974127;28;20031;-89
2022/02/16 10:20:34;;;;;;;20.83;4.03;;;;;;;15.85;75.57;98855.31;5604734;23;20038;-96
2022/02/16 10:22:59;;;;;;;16.00;3.15;;;;;;;15.39;76.55;98831.44;5046228;28;20049;-95
2022/02/16 10:25:32;;;;;;;14.98;3.50;;;;;;;15.84;75.87;98864.28;5033463;28;20026;-96
2022/02/16 10:28:04;;;;;;;15.75;2.63;;;;;;;15.81;75.58;98851.38;5020789;28;20069;-96
2022/02/16 10:30:29;;;;;;;;;;;;;;;15.85;75.39;98865.91;5003178;28;20712;-94
2022/02/16 10:33:28;;;;;;;19.77;2.95;;;;;;;15.66;75.92;98861.06;5002064;28;19918;-95
2022/02/16 10:38:33;;;;;;;20.38;3.05;;;;;;;15.94;74.74;98864.03;5880903;23;21181;-95
2022/02/16 10:56:52;;;;;;;5.45;1.75;;;;;;;16.35;73.29;98828.44;4796041;22;20081;-95
2022/02/16 10:59:17;;;;;;;8.13;2.03;;;;;;;16.46;72.94;98833.31;4989910;28;20039;-96
2022/02/16 11:01:44;;;;;;;6.97;1.02;;;;;;;16.51;73.02;98862.75;4981636;28;20034;-96
2022/02/16 11:04:13;;;;;;;5.05;0.90;;;;;;;16.24;73.81;98843.78;4984475;28;20026;-96
2022/02/16 11:06:43;;;;;;;4.88;0.90;;;;;;;16.59;72.67;98830.88;4987677;28;20097;-96
2022/02/16 11:09:16;;;;;;;4.65;0.75;;;;;;;16.65;72.84;98839.91;4995375;28;20019;-96
2022/02/16 11:11:42;;;;;;;2.13;0.50;;;;;;;16.62;73.14;98850.88;4993349;28;20023;-96
2022/02/16 11:14:11;;;;;;;3.65;0.60;;;;;;;16.73;72.50;98825.78;4991345;28;20046;-96
2022/02/16 11:16:39;;;;;;;3.97;0.82;;;;;;;16.69;72.63;98819.19;5003578;28;20030;-96
2022/02/16 11:19:25;;;;;;;1.63;0.30;;;;;;;16.44;73.17;98835.31;5005795;28;20043;-96
2022/02/16 11:22:21;;;;;;;2.72;0.50;;;;;;;16.79;72.31;98833.81;4978716;28;20026;-96
2022/02/16 11:24:50;;;;;;;6.82;0.63;;;;;;;16.84;72.42;98833.28;4989570;28;20070;-96
2022/02/16 11:27:49;;;;;;;1.90;0.38;;;;;;;16.62;72.70;98829.69;4995317;28;20015;-96
2022/02/16 11:30:38;;;;;;;5.70;0.50;;;;;;;16.66;72.21;98813.22;5010534;28;20103;-96
2022/02/16 11:33:21;;;;;;;3.22;0.50;;;;;;;16.84;72.29;98844.72;5005161;28;20092;-96
2022/02/16 11:35:53;;;;;;;4.78;0.40;;;;;;;16.66;72.26;98845.03;5095971;22;20054;-95
2022/02/16 11:38:21;;;;;;;1.13;0.40;;;;;;;16.76;72.17;98857.19;4996619;28;20055;-96
2022/02/16 11:40:57;;;;;;;5.43;0.40;;;;;;;16.60;72.33;98832.50;5016443;28;20033;-96
2022/02/16 11:43:52;;;;;;;3.83;0.47;;;;;;;16.43;73.62;98852.22;5016728;28;20168;-96